sensor_id;sensor_type;location;lat;lon;timestamp;temperature;humidity
36424;DHT22;22458;45.328;9.514;2022-08-25T00:00:43;25.10;67.80
36424;DHT22;22458;45.328;9.514;2022-08-25T00:03:10;25.00;68.00
36424;DHT22;22458;45.328;9.514;2022-08-25T00:05:36;25.00;68.00
36424;DHT22;22458;45.328;9.514;2022-08-25T00:08:03;25.10;67.80
36424;DHT22;22458;45.328;9.514;2022-08-25T00:10:32;25.20;67.60
36424;DHT22;22458;45.328;9.514;2022-08-25T00:13:00;25.30;67.60
36424;DHT22;22458;45.328;9.514;2022-08-25T00:15:27;25.30;67.40
36424;DHT22;22458;45.328;9.514;2022-08-25T00:17:53;25.30;67.30
36424;DHT22;22458;45.328;9.514;2022-08-25T00:20:20;25.40;67.30
36424;DHT22;22458;45.328;9.514;2022-08-25T00:22:46;25.40;67.20
36424;DHT22;22458;45.328;9.514;2022-08-25T00:25:13;25.50;67.20
36424;DHT22;22458;45.328;9.514;2022-08-25T00:27:39;25.50;67.20
36424;DHT22;22458;45.328;9.514;2022-08-25T00:30:06;25.40;67.10
36424;DHT22;22458;45.328;9.514;2022-08-25T00:32:32;25.50;67.20
36424;DHT22;22458;45.328;9.514;2022-08-25T00:34:57;25.40;67.20
36424;DHT22;22458;45.328;9.514;2022-08-25T00:37:24;25.40;67.30
36424;DHT22;22458;45.328;9.514;2022-08-25T00:39:49;25.30;67.40
36424;DHT22;22458;45.328;9.514;2022-08-25T00:42:15;25.30;67.60
36424;DHT22;22458;45.328;9.514;2022-08-25T00:44:41;25.20;67.80
36424;DHT22;22458;45.328;9.514;2022-08-25T00:47:08;25.20;68.00
36424;DHT22;22458;45.328;9.514;2022-08-25T00:49:45;25.10;68.20
36424;DHT22;22458;45.328;9.514;2022-08-25T00:52:22;24.90;68.40
36424;DHT22;22458;45.328;9.514;2022-08-25T00:54:52;24.80;68.80
36424;DHT22;22458;45.328;9.514;2022-08-25T00:57:25;24.80;69.00
36424;DHT22;22458;45.328;9.514;2022-08-25T00:59:52;24.80;69.10
36424;DHT22;22458;45.328;9.514;2022-08-25T01:02:19;24.80;69.10
36424;DHT22;22458;45.328;9.514;2022-08-25T01:04:45;24.80;69.60
36424;DHT22;22458;45.328;9.514;2022-08-25T01:07:12;24.80;69.00
36424;DHT22;22458;45.328;9.514;2022-08-25T01:09:39;24.80;69.00
36424;DHT22;22458;45.328;9.514;2022-08-25T01:12:06;24.80;69.00
36424;DHT22;22458;45.328;9.514;2022-08-25T01:14:33;24.80;69.20
36424;DHT22;22458;45.328;9.514;2022-08-25T01:16:59;24.70;69.20
36424;DHT22;22458;45.328;9.514;2022-08-25T01:19:26;24.70;69.30
36424;DHT22;22458;45.328;9.514;2022-08-25T01:21:53;24.60;69.40
36424;DHT22;22458;45.328;9.514;2022-08-25T01:27:05;24.70;69.40
36424;DHT22;22458;45.328;9.514;2022-08-25T01:29:31;24.60;69.40
36424;DHT22;22458;45.328;9.514;2022-08-25T01:32:01;24.60;69.50
36424;DHT22;22458;45.328;9.514;2022-08-25T01:34:30;24.50;69.70
36424;DHT22;22458;45.328;9.514;2022-08-25T01:36:58;24.40;70.00
36424;DHT22;22458;45.328;9.514;2022-08-25T01:39:28;24.30;70.20
36424;DHT22;22458;45.328;9.514;2022-08-25T01:44:31;24.20;70.70
36424;DHT22;22458;45.328;9.514;2022-08-25T01:46:57;24.10;70.90
36424;DHT22;22458;45.328;9.514;2022-08-25T01:49:23;24.10;71.00
36424;DHT22;22458;45.328;9.514;2022-08-25T01:52:01;24.20;70.90
36424;DHT22;22458;45.328;9.514;2022-08-25T01:54:29;24.30;70.70
36424;DHT22;22458;45.328;9.514;2022-08-25T01:56:57;24.40;70.50
36424;DHT22;22458;45.328;9.514;2022-08-25T01:59:23;24.50;70.30
36424;DHT22;22458;45.328;9.514;2022-08-25T02:01:51;24.50;70.10
36424;DHT22;22458;45.328;9.514;2022-08-25T02:04:17;24.60;70.10
36424;DHT22;22458;45.328;9.514;2022-08-25T02:06:43;24.60;70.10
36424;DHT22;22458;45.328;9.514;2022-08-25T02:09:12;24.60;70.10
36424;DHT22;22458;45.328;9.514;2022-08-25T02:11:41;24.60;70.10
36424;DHT22;22458;45.328;9.514;2022-08-25T02:14:09;24.60;70.30
36424;DHT22;22458;45.328;9.514;2022-08-25T02:16:38;24.40;70.50
36424;DHT22;22458;45.328;9.514;2022-08-25T02:19:06;24.30;70.90
36424;DHT22;22458;45.328;9.514;2022-08-25T02:21:33;24.10;71.20
36424;DHT22;22458;45.328;9.514;2022-08-25T02:24:00;23.90;71.80
36424;DHT22;22458;45.328;9.514;2022-08-25T02:26:26;23.80;72.30
36424;DHT22;22458;45.328;9.514;2022-08-25T02:28:53;23.80;72.50
36424;DHT22;22458;45.328;9.514;2022-08-25T02:31:21;23.80;72.50
36424;DHT22;22458;45.328;9.514;2022-08-25T02:33:47;23.90;72.30
36424;DHT22;22458;45.328;9.514;2022-08-25T02:36:13;24.00;72.10
36424;DHT22;22458;45.328;9.514;2022-08-25T02:38:39;24.10;72.00
36424;DHT22;22458;45.328;9.514;2022-08-25T02:41:14;24.10;71.70
36424;DHT22;22458;45.328;9.514;2022-08-25T02:43:42;24.20;72.10
36424;DHT22;22458;45.328;9.514;2022-08-25T02:46:09;24.20;71.40
36424;DHT22;22458;45.328;9.514;2022-08-25T02:48:36;24.20;71.30
36424;DHT22;22458;45.328;9.514;2022-08-25T02:51:03;24.30;71.30
36424;DHT22;22458;45.328;9.514;2022-08-25T02:53:29;24.30;71.30
36424;DHT22;22458;45.328;9.514;2022-08-25T02:55:55;24.30;71.20
36424;DHT22;22458;45.328;9.514;2022-08-25T02:58:21;24.40;71.20
36424;DHT22;22458;45.328;9.514;2022-08-25T03:00:48;24.30;71.10
36424;DHT22;22458;45.328;9.514;2022-08-25T03:03:14;24.30;71.30
36424;DHT22;22458;45.328;9.514;2022-08-25T03:05:41;24.20;71.60
36424;DHT22;22458;45.328;9.514;2022-08-25T03:08:07;24.10;71.80
36424;DHT22;22458;45.328;9.514;2022-08-25T03:10:33;24.00;72.00
36424;DHT22;22458;45.328;9.514;2022-08-25T03:12:59;23.90;72.20
36424;DHT22;22458;45.328;9.514;2022-08-25T03:15:25;24.00;72.10
36424;DHT22;22458;45.328;9.514;2022-08-25T03:17:53;24.10;72.00
36424;DHT22;22458;45.328;9.514;2022-08-25T03:20:21;24.10;71.90
36424;DHT22;22458;45.328;9.514;2022-08-25T03:22:47;24.00;71.90
36424;DHT22;22458;45.328;9.514;2022-08-25T03:25:13;23.90;72.20
36424;DHT22;22458;45.328;9.514;2022-08-25T03:27:58;23.80;72.50
36424;DHT22;22458;45.328;9.514;2022-08-25T03:30:24;23.80;72.70
36424;DHT22;22458;45.328;9.514;2022-08-25T03:32:50;23.80;72.90
36424;DHT22;22458;45.328;9.514;2022-08-25T03:35:17;23.70;73.10
36424;DHT22;22458;45.328;9.514;2022-08-25T03:37:43;23.70;73.30
36424;DHT22;22458;45.328;9.514;2022-08-25T03:40:11;23.60;73.30
36424;DHT22;22458;45.328;9.514;2022-08-25T03:42:41;23.60;73.30
36424;DHT22;22458;45.328;9.514;2022-08-25T03:45:07;23.70;73.40
36424;DHT22;22458;45.328;9.514;2022-08-25T03:47:33;23.80;73.10
36424;DHT22;22458;45.328;9.514;2022-08-25T03:49:59;23.90;72.80
36424;DHT22;22458;45.328;9.514;2022-08-25T03:52:25;23.90;72.60
36424;DHT22;22458;45.328;9.514;2022-08-25T03:54:51;23.90;72.50
36424;DHT22;22458;45.328;9.514;2022-08-25T03:57:17;23.90;72.40
36424;DHT22;22458;45.328;9.514;2022-08-25T03:59:45;23.90;72.40
36424;DHT22;22458;45.328;9.514;2022-08-25T04:02:10;23.90;72.50
36424;DHT22;22458;45.328;9.514;2022-08-25T04:04:36;23.80;72.60
36424;DHT22;22458;45.328;9.514;2022-08-25T04:07:02;23.80;72.80
36424;DHT22;22458;45.328;9.514;2022-08-25T04:09:28;23.70;73.00
36424;DHT22;22458;45.328;9.514;2022-08-25T04:11:53;23.60;73.20
36424;DHT22;22458;45.328;9.514;2022-08-25T04:14:20;23.60;73.30
36424;DHT22;22458;45.328;9.514;2022-08-25T04:17:00;23.60;73.30
36424;DHT22;22458;45.328;9.514;2022-08-25T04:19:25;23.70;73.30
36424;DHT22;22458;45.328;9.514;2022-08-25T04:21:51;23.70;73.20
36424;DHT22;22458;45.328;9.514;2022-08-25T04:24:18;23.80;73.00
36424;DHT22;22458;45.328;9.514;2022-08-25T04:26:49;23.80;72.80
36424;DHT22;22458;45.328;9.514;2022-08-25T04:29:19;23.90;72.70
36424;DHT22;22458;45.328;9.514;2022-08-25T04:31:46;23.90;72.60
36424;DHT22;22458;45.328;9.514;2022-08-25T04:34:13;23.90;72.50
36424;DHT22;22458;45.328;9.514;2022-08-25T04:36:39;23.90;72.50
36424;DHT22;22458;45.328;9.514;2022-08-25T04:39:05;23.90;72.60
36424;DHT22;22458;45.328;9.514;2022-08-25T04:41:31;23.80;72.60
36424;DHT22;22458;45.328;9.514;2022-08-25T04:43:58;23.90;72.60
36424;DHT22;22458;45.328;9.514;2022-08-25T04:46:27;23.90;72.60
36424;DHT22;22458;45.328;9.514;2022-08-25T04:48:55;23.90;72.60
36424;DHT22;22458;45.328;9.514;2022-08-25T04:51:24;23.90;72.60
36424;DHT22;22458;45.328;9.514;2022-08-25T04:53:51;23.90;72.60
36424;DHT22;22458;45.328;9.514;2022-08-25T04:56:18;24.00;72.70
36424;DHT22;22458;45.328;9.514;2022-08-25T04:58:45;24.00;72.60
36424;DHT22;22458;45.328;9.514;2022-08-25T05:01:17;24.00;72.60
36424;DHT22;22458;45.328;9.514;2022-08-25T05:03:50;23.90;72.60
36424;DHT22;22458;45.328;9.514;2022-08-25T05:06:16;23.90;72.70
36424;DHT22;22458;45.328;9.514;2022-08-25T05:08:43;23.90;72.80
36424;DHT22;22458;45.328;9.514;2022-08-25T05:11:11;23.90;72.90
36424;DHT22;22458;45.328;9.514;2022-08-25T05:13:39;23.90;72.80
36424;DHT22;22458;45.328;9.514;2022-08-25T05:16:06;23.90;72.90
36424;DHT22;22458;45.328;9.514;2022-08-25T05:18:33;23.90;73.00
36424;DHT22;22458;45.328;9.514;2022-08-25T05:21:04;24.00;73.10
36424;DHT22;22458;45.328;9.514;2022-08-25T05:23:31;24.00;73.00
36424;DHT22;22458;45.328;9.514;2022-08-25T05:26:03;24.00;73.10
36424;DHT22;22458;45.328;9.514;2022-08-25T05:28:29;24.00;73.20
36424;DHT22;22458;45.328;9.514;2022-08-25T05:31:00;24.10;73.30
36424;DHT22;22458;45.328;9.514;2022-08-25T05:33:27;24.10;73.30
36424;DHT22;22458;45.328;9.514;2022-08-25T05:35:53;24.10;73.20
36424;DHT22;22458;45.328;9.514;2022-08-25T05:38:18;24.10;73.10
36424;DHT22;22458;45.328;9.514;2022-08-25T05:40:44;24.20;73.10
36424;DHT22;22458;45.328;9.514;2022-08-25T05:43:10;24.20;73.30
36424;DHT22;22458;45.328;9.514;2022-08-25T05:45:39;24.10;73.70
36424;DHT22;22458;45.328;9.514;2022-08-25T05:48:05;24.10;74.10
36424;DHT22;22458;45.328;9.514;2022-08-25T05:50:31;24.10;74.20
36424;DHT22;22458;45.328;9.514;2022-08-25T05:52:57;24.30;74.10
36424;DHT22;22458;45.328;9.514;2022-08-25T05:55:23;24.30;74.00
36424;DHT22;22458;45.328;9.514;2022-08-25T05:57:49;24.40;73.80
36424;DHT22;22458;45.328;9.514;2022-08-25T06:00:15;24.50;73.80
36424;DHT22;22458;45.328;9.514;2022-08-25T06:02:42;24.50;73.80
36424;DHT22;22458;45.328;9.514;2022-08-25T06:05:15;24.60;73.90
36424;DHT22;22458;45.328;9.514;2022-08-25T06:07:42;24.60;73.90
36424;DHT22;22458;45.328;9.514;2022-08-25T06:10:09;24.60;73.90
36424;DHT22;22458;45.328;9.514;2022-08-25T06:12:40;24.60;73.60
36424;DHT22;22458;45.328;9.514;2022-08-25T06:15:07;24.70;73.60
36424;DHT22;22458;45.328;9.514;2022-08-25T06:17:33;24.60;73.80
36424;DHT22;22458;45.328;9.514;2022-08-25T06:20:07;24.50;73.90
36424;DHT22;22458;45.328;9.514;2022-08-25T06:22:33;24.50;74.40
36424;DHT22;22458;45.328;9.514;2022-08-25T06:24:59;24.40;74.40
36424;DHT22;22458;45.328;9.514;2022-08-25T06:27:25;24.30;74.40
36424;DHT22;22458;45.328;9.514;2022-08-25T06:29:50;24.40;74.50
36424;DHT22;22458;45.328;9.514;2022-08-25T06:32:16;24.40;74.30
36424;DHT22;22458;45.328;9.514;2022-08-25T06:34:42;24.50;73.80
36424;DHT22;22458;45.328;9.514;2022-08-25T06:37:08;24.60;73.60
36424;DHT22;22458;45.328;9.514;2022-08-25T06:39:33;24.70;73.30
36424;DHT22;22458;45.328;9.514;2022-08-25T06:41:59;24.80;73.60
36424;DHT22;22458;45.328;9.514;2022-08-25T06:44:25;24.80;72.80
36424;DHT22;22458;45.328;9.514;2022-08-25T06:46:52;24.90;72.40
36424;DHT22;22458;45.328;9.514;2022-08-25T06:49:18;25.10;72.00
36424;DHT22;22458;45.328;9.514;2022-08-25T06:51:45;25.20;71.60
36424;DHT22;22458;45.328;9.514;2022-08-25T06:54:11;25.30;71.20
36424;DHT22;22458;45.328;9.514;2022-08-25T06:56:39;25.40;70.90
36424;DHT22;22458;45.328;9.514;2022-08-25T06:59:07;25.50;70.70
36424;DHT22;22458;45.328;9.514;2022-08-25T07:01:33;25.60;70.50
36424;DHT22;22458;45.328;9.514;2022-08-25T07:04:02;25.70;70.20
36424;DHT22;22458;45.328;9.514;2022-08-25T07:06:30;25.80;69.80
36424;DHT22;22458;45.328;9.514;2022-08-25T07:08:56;25.80;69.60
36424;DHT22;22458;45.328;9.514;2022-08-25T07:11:22;25.90;69.60
36424;DHT22;22458;45.328;9.514;2022-08-25T07:13:49;26.00;69.60
36424;DHT22;22458;45.328;9.514;2022-08-25T07:16:16;26.00;69.40
36424;DHT22;22458;45.328;9.514;2022-08-25T07:18:44;26.10;69.20
36424;DHT22;22458;45.328;9.514;2022-08-25T07:21:11;26.20;69.00
36424;DHT22;22458;45.328;9.514;2022-08-25T07:23:38;26.30;68.80
36424;DHT22;22458;45.328;9.514;2022-08-25T07:26:24;26.40;68.60
36424;DHT22;22458;45.328;9.514;2022-08-25T07:28:51;26.50;68.20
36424;DHT22;22458;45.328;9.514;2022-08-25T07:31:16;26.60;68.10
36424;DHT22;22458;45.328;9.514;2022-08-25T07:33:42;26.80;67.50
36424;DHT22;22458;45.328;9.514;2022-08-25T07:36:29;26.80;67.20
36424;DHT22;22458;45.328;9.514;2022-08-25T07:38:59;26.90;67.00
36424;DHT22;22458;45.328;9.514;2022-08-25T07:41:28;27.00;66.40
36424;DHT22;22458;45.328;9.514;2022-08-25T07:47:18;27.10;65.30
36424;DHT22;22458;45.328;9.514;2022-08-25T07:49:43;27.10;65.20
36424;DHT22;22458;45.328;9.514;2022-08-25T07:52:09;27.20;64.90
36424;DHT22;22458;45.328;9.514;2022-08-25T07:54:36;27.40;64.70
36424;DHT22;22458;45.328;9.514;2022-08-25T07:57:02;27.40;64.50
36424;DHT22;22458;45.328;9.514;2022-08-25T07:59:28;27.50;64.10
36424;DHT22;22458;45.328;9.514;2022-08-25T08:01:54;27.60;64.00
36424;DHT22;22458;45.328;9.514;2022-08-25T08:04:19;27.80;63.80
36424;DHT22;22458;45.328;9.514;2022-08-25T08:06:45;27.90;63.40
36424;DHT22;22458;45.328;9.514;2022-08-25T08:09:11;28.00;63.00
36424;DHT22;22458;45.328;9.514;2022-08-25T08:11:37;28.00;62.70
36424;DHT22;22458;45.328;9.514;2022-08-25T08:14:05;28.10;62.60
36424;DHT22;22458;45.328;9.514;2022-08-25T08:16:32;28.10;62.40
36424;DHT22;22458;45.328;9.514;2022-08-25T08:18:59;28.30;62.20
36424;DHT22;22458;45.328;9.514;2022-08-25T08:21:28;28.30;61.60
36424;DHT22;22458;45.328;9.514;2022-08-25T08:23:55;28.50;61.50
36424;DHT22;22458;45.328;9.514;2022-08-25T08:26:22;28.50;61.20
36424;DHT22;22458;45.328;9.514;2022-08-25T08:28:49;28.60;60.90
36424;DHT22;22458;45.328;9.514;2022-08-25T08:31:20;28.60;60.40
36424;DHT22;22458;45.328;9.514;2022-08-25T08:33:49;28.60;60.00
36424;DHT22;22458;45.328;9.514;2022-08-25T08:36:16;28.70;59.70
36424;DHT22;22458;45.328;9.514;2022-08-25T08:38:44;28.70;59.50
36424;DHT22;22458;45.328;9.514;2022-08-25T08:50:09;29.30;59.10
36424;DHT22;22458;45.328;9.514;2022-08-25T08:56:08;29.60;58.50
36424;DHT22;22458;45.328;9.514;2022-08-25T08:58:43;29.80;58.20
36424;DHT22;22458;45.328;9.514;2022-08-25T09:01:16;29.80;57.20
36424;DHT22;22458;45.328;9.514;2022-08-25T09:03:53;29.80;56.80
36424;DHT22;22458;45.328;9.514;2022-08-25T09:06:31;29.90;56.70
36424;DHT22;22458;45.328;9.514;2022-08-25T09:09:04;30.00;56.20
36424;DHT22;22458;45.328;9.514;2022-08-25T09:28:20;30.50;54.80
36424;DHT22;22458;45.328;9.514;2022-08-25T09:33:20;30.60;54.00
36424;DHT22;22458;45.328;9.514;2022-08-25T09:35:49;30.70;53.60
36424;DHT22;22458;45.328;9.514;2022-08-25T09:38:15;30.70;53.70
36424;DHT22;22458;45.328;9.514;2022-08-25T09:40:47;30.70;54.00
36424;DHT22;22458;45.328;9.514;2022-08-25T09:43:40;30.90;54.20
36424;DHT22;22458;45.328;9.514;2022-08-25T09:46:12;31.10;54.00
36424;DHT22;22458;45.328;9.514;2022-08-25T09:54:13;31.30;53.80
36424;DHT22;22458;45.328;9.514;2022-08-25T09:56:58;31.40;53.00
36424;DHT22;22458;45.328;9.514;2022-08-25T10:02:26;31.60;53.20
36424;DHT22;22458;45.328;9.514;2022-08-25T10:04:53;31.80;52.70
36424;DHT22;22458;45.328;9.514;2022-08-25T10:07:38;31.80;52.50
36424;DHT22;22458;45.328;9.514;2022-08-25T10:10:21;31.90;51.80
36424;DHT22;22458;45.328;9.514;2022-08-25T10:12:47;31.80;51.40
36424;DHT22;22458;45.328;9.514;2022-08-25T10:15:21;31.80;51.30
36424;DHT22;22458;45.328;9.514;2022-08-25T10:17:48;31.90;51.30
36424;DHT22;22458;45.328;9.514;2022-08-25T10:20:25;31.80;50.70
36424;DHT22;22458;45.328;9.514;2022-08-25T10:22:51;31.90;50.70
36424;DHT22;22458;45.328;9.514;2022-08-25T10:25:27;31.90;50.70
36424;DHT22;22458;45.328;9.514;2022-08-25T10:28:18;32.00;50.60
36424;DHT22;22458;45.328;9.514;2022-08-25T10:31:03;32.10;50.70
36424;DHT22;22458;45.328;9.514;2022-08-25T10:39:53;32.40;49.50
36424;DHT22;22458;45.328;9.514;2022-08-25T10:45:14;32.50;49.20
36424;DHT22;22458;45.328;9.514;2022-08-25T10:48:42;32.50;49.20
36424;DHT22;22458;45.328;9.514;2022-08-25T10:51:36;32.70;49.00
36424;DHT22;22458;45.328;9.514;2022-08-25T10:57:22;32.90;49.10
36424;DHT22;22458;45.328;9.514;2022-08-25T11:02:36;32.90;48.90
36424;DHT22;22458;45.328;9.514;2022-08-25T11:05:22;33.00;47.90
36424;DHT22;22458;45.328;9.514;2022-08-25T11:07:54;33.00;48.00
36424;DHT22;22458;45.328;9.514;2022-08-25T11:16:10;33.30;46.30
36424;DHT22;22458;45.328;9.514;2022-08-25T11:18:43;33.30;46.20
36424;DHT22;22458;45.328;9.514;2022-08-25T11:21:15;33.40;46.40
36424;DHT22;22458;45.328;9.514;2022-08-25T11:23:57;33.70;46.80
36424;DHT22;22458;45.328;9.514;2022-08-25T11:26:29;33.80;46.50
36424;DHT22;22458;45.328;9.514;2022-08-25T11:29:11;34.10;45.90
36424;DHT22;22458;45.328;9.514;2022-08-25T11:31:41;34.30;45.60
36424;DHT22;22458;45.328;9.514;2022-08-25T11:34:10;34.50;45.60
36424;DHT22;22458;45.328;9.514;2022-08-25T11:36:57;34.70;45.40
36424;DHT22;22458;45.328;9.514;2022-08-25T11:42:37;34.60;44.90
36424;DHT22;22458;45.328;9.514;2022-08-25T11:48:15;34.50;45.30
36424;DHT22;22458;45.328;9.514;2022-08-25T11:50:56;34.60;45.10
36424;DHT22;22458;45.328;9.514;2022-08-25T11:53:35;34.90;44.90
36424;DHT22;22458;45.328;9.514;2022-08-25T11:56:11;35.00;44.50
36424;DHT22;22458;45.328;9.514;2022-08-25T11:58:50;35.10;43.50
36424;DHT22;22458;45.328;9.514;2022-08-25T12:04:39;34.80;43.20
36424;DHT22;22458;45.328;9.514;2022-08-25T12:12:54;34.70;43.90
36424;DHT22;22458;45.328;9.514;2022-08-25T12:27:03;34.60;43.30
36424;DHT22;22458;45.328;9.514;2022-08-25T12:29:48;34.70;43.70
36424;DHT22;22458;45.328;9.514;2022-08-25T12:32:44;34.70;43.30
36424;DHT22;22458;45.328;9.514;2022-08-25T12:35:36;34.70;43.20
36424;DHT22;22458;45.328;9.514;2022-08-25T12:38:17;34.70;43.10
36424;DHT22;22458;45.328;9.514;2022-08-25T12:41:12;34.80;43.20
36424;DHT22;22458;45.328;9.514;2022-08-25T12:43:43;34.90;43.00
36424;DHT22;22458;45.328;9.514;2022-08-25T13:00:35;35.40;42.90
36424;DHT22;22458;45.328;9.514;2022-08-25T13:03:36;35.40;42.90
36424;DHT22;22458;45.328;9.514;2022-08-25T13:06:26;35.40;42.80
36424;DHT22;22458;45.328;9.514;2022-08-25T13:09:20;35.40;42.70
36424;DHT22;22458;45.328;9.514;2022-08-25T13:12:20;35.40;42.60
36424;DHT22;22458;45.328;9.514;2022-08-25T13:14:53;35.40;42.40
36424;DHT22;22458;45.328;9.514;2022-08-25T13:20:08;35.50;42.00
36424;DHT22;22458;45.328;9.514;2022-08-25T13:22:34;35.50;41.90
36424;DHT22;22458;45.328;9.514;2022-08-25T13:25:00;35.60;42.00
36424;DHT22;22458;45.328;9.514;2022-08-25T13:27:27;35.70;41.70
36424;DHT22;22458;45.328;9.514;2022-08-25T13:29:57;35.70;41.40
36424;DHT22;22458;45.328;9.514;2022-08-25T13:32:35;35.70;41.60
36424;DHT22;22458;45.328;9.514;2022-08-25T13:35:36;35.80;41.70
36424;DHT22;22458;45.328;9.514;2022-08-25T13:38:15;35.80;41.70
36424;DHT22;22458;45.328;9.514;2022-08-25T13:40:41;35.90;42.20
36424;DHT22;22458;45.328;9.514;2022-08-25T13:43:09;35.90;42.20
36424;DHT22;22458;45.328;9.514;2022-08-25T13:45:40;35.90;42.00
36424;DHT22;22458;45.328;9.514;2022-08-25T13:48:11;35.90;42.30
36424;DHT22;22458;45.328;9.514;2022-08-25T13:50:40;35.90;41.90
36424;DHT22;22458;45.328;9.514;2022-08-25T13:53:22;35.90;41.70
36424;DHT22;22458;45.328;9.514;2022-08-25T13:55:53;35.90;41.50
36424;DHT22;22458;45.328;9.514;2022-08-25T13:58:35;35.90;41.50
36424;DHT22;22458;45.328;9.514;2022-08-25T14:01:26;36.00;41.40
36424;DHT22;22458;45.328;9.514;2022-08-25T14:03:55;36.10;41.50
36424;DHT22;22458;45.328;9.514;2022-08-25T14:06:24;36.20;41.40
36424;DHT22;22458;45.328;9.514;2022-08-25T14:14:06;36.60;40.80
36424;DHT22;22458;45.328;9.514;2022-08-25T14:16:50;36.90;40.50
36424;DHT22;22458;45.328;9.514;2022-08-25T14:19:20;37.20;40.30
36424;DHT22;22458;45.328;9.514;2022-08-25T14:21:48;37.20;39.90
36424;DHT22;22458;45.328;9.514;2022-08-25T14:24:16;37.10;39.70
36424;DHT22;22458;45.328;9.514;2022-08-25T14:26:44;37.20;39.80
36424;DHT22;22458;45.328;9.514;2022-08-25T14:29:11;37.40;39.40
36424;DHT22;22458;45.328;9.514;2022-08-25T14:31:44;37.50;38.80
36424;DHT22;22458;45.328;9.514;2022-08-25T14:34:26;37.60;39.20
36424;DHT22;22458;45.328;9.514;2022-08-25T14:36:54;37.60;38.50
36424;DHT22;22458;45.328;9.514;2022-08-25T14:39:20;37.50;38.60
36424;DHT22;22458;45.328;9.514;2022-08-25T14:41:46;37.30;38.50
36424;DHT22;22458;45.328;9.514;2022-08-25T14:44:14;37.20;38.70
36424;DHT22;22458;45.328;9.514;2022-08-25T14:46:43;37.10;38.80
36424;DHT22;22458;45.328;9.514;2022-08-25T14:49:14;37.10;38.70
36424;DHT22;22458;45.328;9.514;2022-08-25T14:51:41;37.10;39.00
36424;DHT22;22458;45.328;9.514;2022-08-25T14:54:11;37.10;39.00
36424;DHT22;22458;45.328;9.514;2022-08-25T14:56:44;37.10;39.00
36424;DHT22;22458;45.328;9.514;2022-08-25T14:59:11;37.10;39.00
36424;DHT22;22458;45.328;9.514;2022-08-25T15:01:36;37.10;39.10
36424;DHT22;22458;45.328;9.514;2022-08-25T15:04:06;37.10;39.20
36424;DHT22;22458;45.328;9.514;2022-08-25T15:06:34;37.10;39.40
36424;DHT22;22458;45.328;9.514;2022-08-25T15:09:02;37.10;39.10
36424;DHT22;22458;45.328;9.514;2022-08-25T15:11:40;37.10;39.10
36424;DHT22;22458;45.328;9.514;2022-08-25T15:14:07;37.10;39.00
36424;DHT22;22458;45.328;9.514;2022-08-25T15:16:40;37.10;38.90
36424;DHT22;22458;45.328;9.514;2022-08-25T15:19:11;37.10;38.60
36424;DHT22;22458;45.328;9.514;2022-08-25T15:21:42;37.20;38.70
36424;DHT22;22458;45.328;9.514;2022-08-25T15:24:09;37.20;38.60
36424;DHT22;22458;45.328;9.514;2022-08-25T15:26:55;37.20;38.60
36424;DHT22;22458;45.328;9.514;2022-08-25T15:29:23;37.20;38.70
36424;DHT22;22458;45.328;9.514;2022-08-25T15:31:50;37.20;38.80
36424;DHT22;22458;45.328;9.514;2022-08-25T15:34:16;37.10;38.60
36424;DHT22;22458;45.328;9.514;2022-08-25T15:36:42;37.00;39.00
36424;DHT22;22458;45.328;9.514;2022-08-25T15:39:08;36.90;38.50
36424;DHT22;22458;45.328;9.514;2022-08-25T15:41:34;36.80;38.70
36424;DHT22;22458;45.328;9.514;2022-08-25T15:44:03;36.70;38.90
36424;DHT22;22458;45.328;9.514;2022-08-25T15:46:29;36.70;39.20
36424;DHT22;22458;45.328;9.514;2022-08-25T15:48:56;36.70;39.20
36424;DHT22;22458;45.328;9.514;2022-08-25T15:51:24;36.60;38.80
36424;DHT22;22458;45.328;9.514;2022-08-25T15:53:50;36.60;39.10
36424;DHT22;22458;45.328;9.514;2022-08-25T15:56:15;36.50;39.30
36424;DHT22;22458;45.328;9.514;2022-08-25T15:58:46;36.50;39.30
36424;DHT22;22458;45.328;9.514;2022-08-25T16:01:23;36.60;39.20
36424;DHT22;22458;45.328;9.514;2022-08-25T16:03:49;36.60;39.10
36424;DHT22;22458;45.328;9.514;2022-08-25T16:06:15;36.60;38.70
36424;DHT22;22458;45.328;9.514;2022-08-25T16:08:41;36.60;38.70
36424;DHT22;22458;45.328;9.514;2022-08-25T16:11:18;36.60;38.60
36424;DHT22;22458;45.328;9.514;2022-08-25T16:13:45;36.60;38.60
36424;DHT22;22458;45.328;9.514;2022-08-25T16:16:13;36.60;38.60
36424;DHT22;22458;45.328;9.514;2022-08-25T16:18:40;36.50;38.40
36424;DHT22;22458;45.328;9.514;2022-08-25T16:21:08;36.40;38.30
36424;DHT22;22458;45.328;9.514;2022-08-25T16:23:35;36.40;38.60
36424;DHT22;22458;45.328;9.514;2022-08-25T16:26:03;36.30;38.60
36424;DHT22;22458;45.328;9.514;2022-08-25T16:28:30;36.20;38.40
36424;DHT22;22458;45.328;9.514;2022-08-25T16:30:55;36.20;38.50
36424;DHT22;22458;45.328;9.514;2022-08-25T16:33:21;36.20;38.40
36424;DHT22;22458;45.328;9.514;2022-08-25T16:35:47;36.20;38.30
36424;DHT22;22458;45.328;9.514;2022-08-25T16:38:13;36.20;38.30
36424;DHT22;22458;45.328;9.514;2022-08-25T16:40:40;36.20;38.60
36424;DHT22;22458;45.328;9.514;2022-08-25T16:43:07;36.10;38.50
36424;DHT22;22458;45.328;9.514;2022-08-25T16:45:33;36.10;38.40
36424;DHT22;22458;45.328;9.514;2022-08-25T16:47:59;36.10;38.40
36424;DHT22;22458;45.328;9.514;2022-08-25T16:50:25;36.00;38.40
36424;DHT22;22458;45.328;9.514;2022-08-25T16:52:51;36.00;38.40
36424;DHT22;22458;45.328;9.514;2022-08-25T16:55:35;36.00;38.30
36424;DHT22;22458;45.328;9.514;2022-08-25T16:58:01;35.90;38.90
36424;DHT22;22458;45.328;9.514;2022-08-25T17:00:29;35.90;39.10
36424;DHT22;22458;45.328;9.514;2022-08-25T17:03:00;35.90;39.50
36424;DHT22;22458;45.328;9.514;2022-08-25T17:05:27;35.80;39.60
36424;DHT22;22458;45.328;9.514;2022-08-25T17:07:55;35.80;39.90
36424;DHT22;22458;45.328;9.514;2022-08-25T17:10:42;35.70;40.20
36424;DHT22;22458;45.328;9.514;2022-08-25T17:13:09;35.70;40.30
36424;DHT22;22458;45.328;9.514;2022-08-25T17:15:43;35.60;40.40
36424;DHT22;22458;45.328;9.514;2022-08-25T17:18:10;35.60;40.40
36424;DHT22;22458;45.328;9.514;2022-08-25T17:20:37;35.60;40.30
36424;DHT22;22458;45.328;9.514;2022-08-25T17:23:03;35.50;40.30
36424;DHT22;22458;45.328;9.514;2022-08-25T17:25:34;35.40;40.80
36424;DHT22;22458;45.328;9.514;2022-08-25T17:28:00;35.30;41.00
36424;DHT22;22458;45.328;9.514;2022-08-25T17:30:26;35.20;41.40
36424;DHT22;22458;45.328;9.514;2022-08-25T17:32:52;35.10;41.40
36424;DHT22;22458;45.328;9.514;2022-08-25T17:35:18;35.10;41.70
36424;DHT22;22458;45.328;9.514;2022-08-25T17:37:44;34.90;42.00
36424;DHT22;22458;45.328;9.514;2022-08-25T17:40:10;34.80;42.10
36424;DHT22;22458;45.328;9.514;2022-08-25T17:42:36;34.70;42.20
36424;DHT22;22458;45.328;9.514;2022-08-25T17:45:03;34.60;42.50